sensor_id;sensor_type;location;lat;lon;timestamp;temperature;humidity
64111;DHT22;50401;48.188;11.566;2022-12-07T00:01:14;4.60;79.07
64111;DHT22;50401;48.188;11.566;2022-12-07T00:03:40;4.56;79.18
64111;DHT22;50401;48.188;11.566;2022-12-07T00:06:06;4.43;79.61
64111;DHT22;50401;48.188;11.566;2022-12-07T00:08:32;4.46;79.29
64111;DHT22;50401;48.188;11.566;2022-12-07T00:11:05;4.50;79.17
64111;DHT22;50401;48.188;11.566;2022-12-07T00:13:30;4.51;79.25
64111;DHT22;50401;48.188;11.566;2022-12-07T00:15:59;4.54;78.91
64111;DHT22;50401;48.188;11.566;2022-12-07T00:18:24;4.53;79.02
64111;DHT22;50401;48.188;11.566;2022-12-07T00:20:50;4.50;79.17
64111;DHT22;50401;48.188;11.566;2022-12-07T00:23:15;4.49;79.33
64111;DHT22;50401;48.188;11.566;2022-12-07T00:25:40;4.50;79.38
64111;DHT22;50401;48.188;11.566;2022-12-07T00:28:05;4.51;79.37
64111;DHT22;50401;48.188;11.566;2022-12-07T00:30:31;4.54;79.20
64111;DHT22;50401;48.188;11.566;2022-12-07T00:32:57;4.53;79.23
64111;DHT22;50401;48.188;11.566;2022-12-07T00:35:22;4.53;79.29
64111;DHT22;50401;48.188;11.566;2022-12-07T00:37:47;4.51;79.31
64111;DHT22;50401;48.188;11.566;2022-12-07T00:40:12;4.50;79.45
64111;DHT22;50401;48.188;11.566;2022-12-07T00:42:38;4.50;79.46
64111;DHT22;50401;48.188;11.566;2022-12-07T00:45:03;4.54;79.47
64111;DHT22;50401;48.188;11.566;2022-12-07T00:47:28;4.53;79.40
64111;DHT22;50401;48.188;11.566;2022-12-07T00:49:53;4.50;79.31
64111;DHT22;50401;48.188;11.566;2022-12-07T00:52:19;4.54;79.13
64111;DHT22;50401;48.188;11.566;2022-12-07T00:54:44;4.50;79.23
64111;DHT22;50401;48.188;11.566;2022-12-07T00:57:09;4.32;79.76
64111;DHT22;50401;48.188;11.566;2022-12-07T00:59:35;4.40;79.70
64111;DHT22;50401;48.188;11.566;2022-12-07T01:02:00;4.47;79.36
64111;DHT22;50401;48.188;11.566;2022-12-07T01:04:25;4.43;79.35
64111;DHT22;50401;48.188;11.566;2022-12-07T01:06:50;4.51;79.28
64111;DHT22;50401;48.188;11.566;2022-12-07T01:09:16;4.51;79.17
64111;DHT22;50401;48.188;11.566;2022-12-07T01:11:41;4.46;79.32
64111;DHT22;50401;48.188;11.566;2022-12-07T01:14:06;4.49;79.40
64111;DHT22;50401;48.188;11.566;2022-12-07T01:16:32;4.46;79.36
64111;DHT22;50401;48.188;11.566;2022-12-07T01:18:58;4.40;79.53
64111;DHT22;50401;48.188;11.566;2022-12-07T01:21:27;4.42;79.55
64111;DHT22;50401;48.188;11.566;2022-12-07T01:23:53;4.47;79.54
64111;DHT22;50401;48.188;11.566;2022-12-07T01:26:20;4.42;79.56
64111;DHT22;50401;48.188;11.566;2022-12-07T01:28:46;4.50;79.52
64111;DHT22;50401;48.188;11.566;2022-12-07T01:31:13;4.49;79.49
64111;DHT22;50401;48.188;11.566;2022-12-07T01:33:40;4.51;79.38
64111;DHT22;50401;48.188;11.566;2022-12-07T01:38:31;4.43;79.62
64111;DHT22;50401;48.188;11.566;2022-12-07T01:40:57;4.49;79.64
64111;DHT22;50401;48.188;11.566;2022-12-07T01:43:23;4.46;79.43
64111;DHT22;50401;48.188;11.566;2022-12-07T01:45:49;4.44;79.49
64111;DHT22;50401;48.188;11.566;2022-12-07T01:48:15;4.42;79.59
64111;DHT22;50401;48.188;11.566;2022-12-07T01:50:41;4.37;79.75
64111;DHT22;50401;48.188;11.566;2022-12-07T01:53:07;4.37;79.71
64111;DHT22;50401;48.188;11.566;2022-12-07T01:55:34;4.42;79.75
64111;DHT22;50401;48.188;11.566;2022-12-07T01:58:02;4.44;79.75
64111;DHT22;50401;48.188;11.566;2022-12-07T02:00:27;4.44;79.60
64111;DHT22;50401;48.188;11.566;2022-12-07T02:03:13;4.43;79.59
64111;DHT22;50401;48.188;11.566;2022-12-07T02:05:40;4.36;79.76
64111;DHT22;50401;48.188;11.566;2022-12-07T02:08:06;4.40;79.81
64111;DHT22;50401;48.188;11.566;2022-12-07T02:10:32;4.34;79.97
64111;DHT22;50401;48.188;11.566;2022-12-07T02:15:28;4.32;80.08
64111;DHT22;50401;48.188;11.566;2022-12-07T02:22:51;4.34;80.05
64111;DHT22;50401;48.188;11.566;2022-12-07T02:30:52;4.32;80.35
64111;DHT22;50401;48.188;11.566;2022-12-07T02:33:24;4.39;80.09
64111;DHT22;50401;48.188;11.566;2022-12-07T02:35:53;4.33;80.06
64111;DHT22;50401;48.188;11.566;2022-12-07T02:41:31;4.32;80.21
64111;DHT22;50401;48.188;11.566;2022-12-07T02:43:59;4.34;80.28
64111;DHT22;50401;48.188;11.566;2022-12-07T02:46:33;4.39;80.07
64111;DHT22;50401;48.188;11.566;2022-12-07T02:49:00;4.37;80.15
64111;DHT22;50401;48.188;11.566;2022-12-07T02:51:29;4.39;80.23
64111;DHT22;50401;48.188;11.566;2022-12-07T02:53:54;4.34;80.13
64111;DHT22;50401;48.188;11.566;2022-12-07T03:04:27;4.33;80.07
64111;DHT22;50401;48.188;11.566;2022-12-07T03:06:56;4.32;80.13
64111;DHT22;50401;48.188;11.566;2022-12-07T03:09:24;4.36;79.90
64111;DHT22;50401;48.188;11.566;2022-12-07T03:11:55;4.32;79.96
64111;DHT22;50401;48.188;11.566;2022-12-07T03:14:29;4.30;79.99
64111;DHT22;50401;48.188;11.566;2022-12-07T03:17:03;4.33;79.96
64111;DHT22;50401;48.188;11.566;2022-12-07T03:19:30;4.33;79.65
64111;DHT22;50401;48.188;11.566;2022-12-07T03:21:57;4.26;79.85
64111;DHT22;50401;48.188;11.566;2022-12-07T03:24:31;4.30;79.87
64111;DHT22;50401;48.188;11.566;2022-12-07T03:27:02;4.26;79.83
64111;DHT22;50401;48.188;11.566;2022-12-07T03:29:30;4.26;79.86
64111;DHT22;50401;48.188;11.566;2022-12-07T03:32:02;4.28;79.82
64111;DHT22;50401;48.188;11.566;2022-12-07T03:34:38;4.28;79.81
64111;DHT22;50401;48.188;11.566;2022-12-07T03:37:07;4.25;79.93
64111;DHT22;50401;48.188;11.566;2022-12-07T03:39:35;4.25;80.04
64111;DHT22;50401;48.188;11.566;2022-12-07T03:42:02;4.28;80.01
64111;DHT22;50401;48.188;11.566;2022-12-07T03:44:29;4.29;80.03
64111;DHT22;50401;48.188;11.566;2022-12-07T03:52:28;4.22;79.84
64111;DHT22;50401;48.188;11.566;2022-12-07T03:54:58;4.22;79.98
64111;DHT22;50401;48.188;11.566;2022-12-07T03:57:25;4.22;80.06
64111;DHT22;50401;48.188;11.566;2022-12-07T03:59:51;4.20;80.00
64111;DHT22;50401;48.188;11.566;2022-12-07T04:02:18;4.17;80.05
64111;DHT22;50401;48.188;11.566;2022-12-07T04:04:45;4.17;80.09
64111;DHT22;50401;48.188;11.566;2022-12-07T04:07:10;4.19;80.19
64111;DHT22;50401;48.188;11.566;2022-12-07T04:09:35;4.20;80.23
64111;DHT22;50401;48.188;11.566;2022-12-07T04:12:01;4.17;80.34
64111;DHT22;50401;48.188;11.566;2022-12-07T04:14:26;4.15;80.38
64111;DHT22;50401;48.188;11.566;2022-12-07T04:16:52;4.15;80.53
64111;DHT22;50401;48.188;11.566;2022-12-07T04:19:19;4.15;80.61
64111;DHT22;50401;48.188;11.566;2022-12-07T04:21:44;4.15;80.59
64111;DHT22;50401;48.188;11.566;2022-12-07T04:24:11;4.17;80.65
64111;DHT22;50401;48.188;11.566;2022-12-07T04:26:36;4.13;80.80
64111;DHT22;50401;48.188;11.566;2022-12-07T04:29:01;4.12;80.93
64111;DHT22;50401;48.188;11.566;2022-12-07T04:31:27;4.15;80.94
64111;DHT22;50401;48.188;11.566;2022-12-07T04:33:52;4.15;81.10
64111;DHT22;50401;48.188;11.566;2022-12-07T04:36:17;4.12;81.24
64111;DHT22;50401;48.188;11.566;2022-12-07T04:38:44;4.12;81.43
64111;DHT22;50401;48.188;11.566;2022-12-07T04:41:10;4.15;81.49
64111;DHT22;50401;48.188;11.566;2022-12-07T04:43:35;4.16;81.58
64111;DHT22;50401;48.188;11.566;2022-12-07T04:46:01;4.19;81.77
64111;DHT22;50401;48.188;11.566;2022-12-07T04:48:27;4.20;81.75
64111;DHT22;50401;48.188;11.566;2022-12-07T04:50:52;4.22;82.09
64111;DHT22;50401;48.188;11.566;2022-12-07T04:53:17;4.22;82.26
64111;DHT22;50401;48.188;11.566;2022-12-07T04:55:43;4.26;82.29
64111;DHT22;50401;48.188;11.566;2022-12-07T04:58:08;4.26;82.41
64111;DHT22;50401;48.188;11.566;2022-12-07T05:00:34;4.28;82.46
64111;DHT22;50401;48.188;11.566;2022-12-07T05:02:59;4.28;82.65
64111;DHT22;50401;48.188;11.566;2022-12-07T05:05:24;4.29;82.72
64111;DHT22;50401;48.188;11.566;2022-12-07T05:07:50;4.29;82.68
64111;DHT22;50401;48.188;11.566;2022-12-07T05:10:15;4.25;82.69
64111;DHT22;50401;48.188;11.566;2022-12-07T05:12:40;4.32;82.31
64111;DHT22;50401;48.188;11.566;2022-12-07T05:15:05;4.25;82.40
64111;DHT22;50401;48.188;11.566;2022-12-07T05:17:31;4.23;82.35
64111;DHT22;50401;48.188;11.566;2022-12-07T05:19:56;4.19;82.56
64111;DHT22;50401;48.188;11.566;2022-12-07T05:22:21;4.16;82.58
64111;DHT22;50401;48.188;11.566;2022-12-07T05:24:47;4.16;82.72
64111;DHT22;50401;48.188;11.566;2022-12-07T05:27:12;4.16;82.73
64111;DHT22;50401;48.188;11.566;2022-12-07T05:29:37;4.13;82.82
64111;DHT22;50401;48.188;11.566;2022-12-07T05:32:02;4.17;82.93
64111;DHT22;50401;48.188;11.566;2022-12-07T05:34:28;4.12;82.63
64111;DHT22;50401;48.188;11.566;2022-12-07T05:36:53;4.12;82.69
64111;DHT22;50401;48.188;11.566;2022-12-07T05:39:18;4.16;82.60
64111;DHT22;50401;48.188;11.566;2022-12-07T05:41:43;4.09;82.61
64111;DHT22;50401;48.188;11.566;2022-12-07T05:44:27;4.09;82.80
64111;DHT22;50401;48.188;11.566;2022-12-07T05:46:53;4.09;82.81
64111;DHT22;50401;48.188;11.566;2022-12-07T05:49:18;4.13;82.51
64111;DHT22;50401;48.188;11.566;2022-12-07T05:51:43;4.10;82.37
64111;DHT22;50401;48.188;11.566;2022-12-07T05:54:09;4.10;82.39
64111;DHT22;50401;48.188;11.566;2022-12-07T05:56:34;4.09;82.30
64111;DHT22;50401;48.188;11.566;2022-12-07T05:58:59;4.12;82.30
64111;DHT22;50401;48.188;11.566;2022-12-07T06:01:43;4.09;82.27
64111;DHT22;50401;48.188;11.566;2022-12-07T06:04:08;4.10;82.02
64111;DHT22;50401;48.188;11.566;2022-12-07T06:06:33;4.12;81.95
64111;DHT22;50401;48.188;11.566;2022-12-07T06:08:59;4.12;81.91
64111;DHT22;50401;48.188;11.566;2022-12-07T06:11:24;4.10;81.89
64111;DHT22;50401;48.188;11.566;2022-12-07T06:14:08;4.16;81.40
64111;DHT22;50401;48.188;11.566;2022-12-07T06:16:34;4.13;81.50
64111;DHT22;50401;48.188;11.566;2022-12-07T06:18:59;4.08;81.72
64111;DHT22;50401;48.188;11.566;2022-12-07T06:21:24;4.10;81.77
64111;DHT22;50401;48.188;11.566;2022-12-07T06:23:51;4.06;81.98
64111;DHT22;50401;48.188;11.566;2022-12-07T06:26:16;4.10;81.98
64111;DHT22;50401;48.188;11.566;2022-12-07T06:28:42;4.12;81.85
64111;DHT22;50401;48.188;11.566;2022-12-07T06:31:07;4.13;81.86
64111;DHT22;50401;48.188;11.566;2022-12-07T06:33:33;4.19;81.80
64111;DHT22;50401;48.188;11.566;2022-12-07T06:35:58;4.19;81.70
64111;DHT22;50401;48.188;11.566;2022-12-07T06:38:23;4.17;81.34
64111;DHT22;50401;48.188;11.566;2022-12-07T06:40:48;4.19;81.38
64111;DHT22;50401;48.188;11.566;2022-12-07T06:43:14;4.15;81.52
64111;DHT22;50401;48.188;11.566;2022-12-07T06:45:40;4.16;81.64
64111;DHT22;50401;48.188;11.566;2022-12-07T06:48:05;4.17;81.51
64111;DHT22;50401;48.188;11.566;2022-12-07T06:50:31;4.17;81.40
64111;DHT22;50401;48.188;11.566;2022-12-07T06:52:56;4.17;81.34
64111;DHT22;50401;48.188;11.566;2022-12-07T06:55:21;4.20;81.33
64111;DHT22;50401;48.188;11.566;2022-12-07T06:57:46;4.16;81.32
64111;DHT22;50401;48.188;11.566;2022-12-07T07:00:12;4.16;81.14
64111;DHT22;50401;48.188;11.566;2022-12-07T07:02:37;4.19;81.08
64111;DHT22;50401;48.188;11.566;2022-12-07T07:05:02;4.17;81.24
64111;DHT22;50401;48.188;11.566;2022-12-07T07:07:28;4.23;81.26
64111;DHT22;50401;48.188;11.566;2022-12-07T07:09:53;4.22;81.20
64111;DHT22;50401;48.188;11.566;2022-12-07T07:12:19;4.22;81.17
64111;DHT22;50401;48.188;11.566;2022-12-07T07:14:44;4.25;81.14
64111;DHT22;50401;48.188;11.566;2022-12-07T07:17:09;4.26;81.04
64111;DHT22;50401;48.188;11.566;2022-12-07T07:19:34;4.23;81.13
64111;DHT22;50401;48.188;11.566;2022-12-07T07:22:00;4.22;81.01
64111;DHT22;50401;48.188;11.566;2022-12-07T07:24:25;4.25;80.83
64111;DHT22;50401;48.188;11.566;2022-12-07T07:26:51;4.25;80.42
64111;DHT22;50401;48.188;11.566;2022-12-07T07:29:16;4.22;80.44
64111;DHT22;50401;48.188;11.566;2022-12-07T07:31:41;4.23;80.38
64111;DHT22;50401;48.188;11.566;2022-12-07T07:34:10;4.28;80.27
64111;DHT22;50401;48.188;11.566;2022-12-07T07:36:35;4.28;79.93
64111;DHT22;50401;48.188;11.566;2022-12-07T07:39:00;4.29;79.95
64111;DHT22;50401;48.188;11.566;2022-12-07T07:41:26;4.37;79.91
64111;DHT22;50401;48.188;11.566;2022-12-07T07:43:51;4.25;79.93
64111;DHT22;50401;48.188;11.566;2022-12-07T07:46:16;4.33;79.91
64111;DHT22;50401;48.188;11.566;2022-12-07T07:48:41;4.29;79.88
64111;DHT22;50401;48.188;11.566;2022-12-07T07:51:07;4.30;79.62
64111;DHT22;50401;48.188;11.566;2022-12-07T07:53:32;4.37;79.62
64111;DHT22;50401;48.188;11.566;2022-12-07T07:55:58;4.37;79.38
64111;DHT22;50401;48.188;11.566;2022-12-07T07:58:23;4.39;79.19
64111;DHT22;50401;48.188;11.566;2022-12-07T08:00:48;4.72;83.18
64111;DHT22;50401;48.188;11.566;2022-12-07T08:03:14;5.02;82.41
64111;DHT22;50401;48.188;11.566;2022-12-07T08:05:39;5.12;79.98
64111;DHT22;50401;48.188;11.566;2022-12-07T08:08:04;5.15;78.87
64111;DHT22;50401;48.188;11.566;2022-12-07T08:10:30;5.23;77.73
64111;DHT22;50401;48.188;11.566;2022-12-07T08:12:57;5.22;77.39
64111;DHT22;50401;48.188;11.566;2022-12-07T08:15:39;5.22;76.37
64111;DHT22;50401;48.188;11.566;2022-12-07T08:18:04;5.26;76.61
64111;DHT22;50401;48.188;11.566;2022-12-07T08:20:30;5.34;76.24
64111;DHT22;50401;48.188;11.566;2022-12-07T08:22:55;5.40;76.12
64111;DHT22;50401;48.188;11.566;2022-12-07T08:25:20;5.54;76.16
64111;DHT22;50401;48.188;11.566;2022-12-07T08:27:47;5.63;75.73
64111;DHT22;50401;48.188;11.566;2022-12-07T08:30:12;5.50;75.21
64111;DHT22;50401;48.188;11.566;2022-12-07T08:32:38;5.38;75.26
64111;DHT22;50401;48.188;11.566;2022-12-07T08:35:05;5.23;75.66
64111;DHT22;50401;48.188;11.566;2022-12-07T08:37:31;5.15;76.35
64111;DHT22;50401;48.188;11.566;2022-12-07T08:39:56;5.06;76.73
64111;DHT22;50401;48.188;11.566;2022-12-07T08:42:21;4.96;76.92
64111;DHT22;50401;48.188;11.566;2022-12-07T08:44:48;4.93;77.20
64111;DHT22;50401;48.188;11.566;2022-12-07T08:47:13;4.86;77.09
64111;DHT22;50401;48.188;11.566;2022-12-07T08:49:39;4.86;77.00
64111;DHT22;50401;48.188;11.566;2022-12-07T08:52:05;4.96;76.84
64111;DHT22;50401;48.188;11.566;2022-12-07T08:54:31;5.02;76.80
64111;DHT22;50401;48.188;11.566;2022-12-07T08:56:58;5.00;77.07
64111;DHT22;50401;48.188;11.566;2022-12-07T08:59:23;5.09;76.91
64111;DHT22;50401;48.188;11.566;2022-12-07T09:01:49;5.23;76.73
64111;DHT22;50401;48.188;11.566;2022-12-07T09:04:14;5.23;76.35
64111;DHT22;50401;48.188;11.566;2022-12-07T09:06:40;5.24;76.03
64111;DHT22;50401;48.188;11.566;2022-12-07T09:09:06;5.27;75.98
64111;DHT22;50401;48.188;11.566;2022-12-07T09:11:31;5.26;75.78
64111;DHT22;50401;48.188;11.566;2022-12-07T09:13:57;5.23;75.23
64111;DHT22;50401;48.188;11.566;2022-12-07T09:16:22;5.33;75.19
64111;DHT22;50401;48.188;11.566;2022-12-07T09:18:47;5.37;74.99
64111;DHT22;50401;48.188;11.566;2022-12-07T09:21:13;5.34;74.98
64111;DHT22;50401;48.188;11.566;2022-12-07T09:23:38;5.20;75.22
64111;DHT22;50401;48.188;11.566;2022-12-07T09:26:03;5.30;74.87
64111;DHT22;50401;48.188;11.566;2022-12-07T09:28:32;5.28;74.57
64111;DHT22;50401;48.188;11.566;2022-12-07T09:30:58;5.36;74.55
64111;DHT22;50401;48.188;11.566;2022-12-07T09:33:23;5.43;74.22
64111;DHT22;50401;48.188;11.566;2022-12-07T09:35:48;5.43;73.81
64111;DHT22;50401;48.188;11.566;2022-12-07T09:38:14;5.50;73.29
64111;DHT22;50401;48.188;11.566;2022-12-07T09:40:40;5.48;73.36
64111;DHT22;50401;48.188;11.566;2022-12-07T09:43:10;5.63;73.13
64111;DHT22;50401;48.188;11.566;2022-12-07T09:45:37;5.69;73.23
64111;DHT22;50401;48.188;11.566;2022-12-07T09:48:03;5.72;73.31
64111;DHT22;50401;48.188;11.566;2022-12-07T09:50:29;5.69;73.01
64111;DHT22;50401;48.188;11.566;2022-12-07T09:52:55;5.72;72.78
64111;DHT22;50401;48.188;11.566;2022-12-07T09:55:28;5.75;72.41
64111;DHT22;50401;48.188;11.566;2022-12-07T09:57:53;5.79;72.31
64111;DHT22;50401;48.188;11.566;2022-12-07T10:00:21;5.83;72.17
64111;DHT22;50401;48.188;11.566;2022-12-07T10:05:13;5.86;72.23
64111;DHT22;50401;48.188;11.566;2022-12-07T10:07:39;5.96;71.55
64111;DHT22;50401;48.188;11.566;2022-12-07T10:10:06;5.96;70.67
64111;DHT22;50401;48.188;11.566;2022-12-07T10:12:58;5.93;71.08
64111;DHT22;50401;48.188;11.566;2022-12-07T10:21:03;6.00;70.98
64111;DHT22;50401;48.188;11.566;2022-12-07T10:23:29;5.95;71.25
64111;DHT22;50401;48.188;11.566;2022-12-07T10:25:54;5.93;71.32
64111;DHT22;50401;48.188;11.566;2022-12-07T10:28:20;5.97;70.89
64111;DHT22;50401;48.188;11.566;2022-12-07T10:30:53;6.10;70.69
64111;DHT22;50401;48.188;11.566;2022-12-07T10:33:28;6.18;70.60
64111;DHT22;50401;48.188;11.566;2022-12-07T10:35:54;6.21;70.66
64111;DHT22;50401;48.188;11.566;2022-12-07T10:38:19;6.24;70.06
64111;DHT22;50401;48.188;11.566;2022-12-07T10:40:45;6.24;70.15
64111;DHT22;50401;48.188;11.566;2022-12-07T10:48:22;6.38;68.99
64111;DHT22;50401;48.188;11.566;2022-12-07T10:51:26;6.48;68.64
64111;DHT22;50401;48.188;11.566;2022-12-07T11:04:35;6.72;65.84
64111;DHT22;50401;48.188;11.566;2022-12-07T11:07:10;6.76;65.75
64111;DHT22;50401;48.188;11.566;2022-12-07T11:18:09;6.86;64.59
64111;DHT22;50401;48.188;11.566;2022-12-07T11:20:39;6.86;64.47
64111;DHT22;50401;48.188;11.566;2022-12-07T11:23:29;6.93;64.49
64111;DHT22;50401;48.188;11.566;2022-12-07T11:28:41;7.00;63.36
64111;DHT22;50401;48.188;11.566;2022-12-07T11:31:28;6.93;62.41
64111;DHT22;50401;48.188;11.566;2022-12-07T11:36:31;6.97;61.62
64111;DHT22;50401;48.188;11.566;2022-12-07T11:39:03;6.99;61.89
64111;DHT22;50401;48.188;11.566;2022-12-07T11:41:30;7.05;62.45
64111;DHT22;50401;48.188;11.566;2022-12-07T11:44:17;7.04;62.30
64111;DHT22;50401;48.188;11.566;2022-12-07T11:46:56;6.69;62.46
64111;DHT22;50401;48.188;11.566;2022-12-07T11:49:26;6.84;62.39
64111;DHT22;50401;48.188;11.566;2022-12-07T11:51:52;6.73;62.32
64111;DHT22;50401;48.188;11.566;2022-12-07T11:54:24;6.82;62.19
64111;DHT22;50401;48.188;11.566;2022-12-07T11:56:50;6.73;62.05
64111;DHT22;50401;48.188;11.566;2022-12-07T11:59:18;6.50;63.31
64111;DHT22;50401;48.188;11.566;2022-12-07T12:09:05;6.52;63.38
64111;DHT22;50401;48.188;11.566;2022-12-07T12:16:46;6.48;62.07
64111;DHT22;50401;48.188;11.566;2022-12-07T12:19:19;6.42;62.98
64111;DHT22;50401;48.188;11.566;2022-12-07T12:21:47;6.42;62.98
64111;DHT22;50401;48.188;11.566;2022-12-07T12:24:15;6.28;63.47
64111;DHT22;50401;48.188;11.566;2022-12-07T12:27:02;6.13;63.77
64111;DHT22;50401;48.188;11.566;2022-12-07T12:29:50;6.17;64.11
64111;DHT22;50401;48.188;11.566;2022-12-07T12:32:17;5.95;64.21
64111;DHT22;50401;48.188;11.566;2022-12-07T12:42:44;5.97;65.65
64111;DHT22;50401;48.188;11.566;2022-12-07T12:47:52;5.93;65.02
64111;DHT22;50401;48.188;11.566;2022-12-07T12:52:57;6.03;64.17
64111;DHT22;50401;48.188;11.566;2022-12-07T13:00:43;6.18;64.06
64111;DHT22;50401;48.188;11.566;2022-12-07T13:03:20;6.23;63.38
64111;DHT22;50401;48.188;11.566;2022-12-07T13:05:47;6.32;62.78
64111;DHT22;50401;48.188;11.566;2022-12-07T13:10:39;6.39;63.72
64111;DHT22;50401;48.188;11.566;2022-12-07T13:23:17;6.53;62.95
64111;DHT22;50401;48.188;11.566;2022-12-07T13:26:09;6.48;62.55
64111;DHT22;50401;48.188;11.566;2022-12-07T13:28:33;6.55;62.95
64111;DHT22;50401;48.188;11.566;2022-12-07T13:31:03;6.55;63.33
64111;DHT22;50401;48.188;11.566;2022-12-07T13:33:29;6.62;63.67
64111;DHT22;50401;48.188;11.566;2022-12-07T13:35:55;6.68;63.52
64111;DHT22;50401;48.188;11.566;2022-12-07T13:38:34;6.69;63.40
64111;DHT22;50401;48.188;11.566;2022-12-07T13:41:15;6.64;63.38
64111;DHT22;50401;48.188;11.566;2022-12-07T13:43:45;6.42;63.55
64111;DHT22;50401;48.188;11.566;2022-12-07T13:46:11;6.53;63.57
64111;DHT22;50401;48.188;11.566;2022-12-07T13:48:43;6.52;63.67
64111;DHT22;50401;48.188;11.566;2022-12-07T13:51:16;6.45;63.99
64111;DHT22;50401;48.188;11.566;2022-12-07T13:53:52;6.41;64.33
64111;DHT22;50401;48.188;11.566;2022-12-07T13:56:17;6.35;64.08
64111;DHT22;50401;48.188;11.566;2022-12-07T13:58:43;6.30;64.23
64111;DHT22;50401;48.188;11.566;2022-12-07T14:01:08;6.25;64.67
64111;DHT22;50401;48.188;11.566;2022-12-07T14:03:34;6.20;64.89
64111;DHT22;50401;48.188;11.566;2022-12-07T14:06:06;6.13;64.81
64111;DHT22;50401;48.188;11.566;2022-12-07T14:08:31;6.09;65.19
64111;DHT22;50401;48.188;11.566;2022-12-07T14:10:57;6.03;65.45
64111;DHT22;50401;48.188;11.566;2022-12-07T14:15:59;5.97;65.58
64111;DHT22;50401;48.188;11.566;2022-12-07T14:18:40;5.90;65.98
64111;DHT22;50401;48.188;11.566;2022-12-07T14:23:34;5.88;66.25
64111;DHT22;50401;48.188;11.566;2022-12-07T14:26:13;5.86;66.62
64111;DHT22;50401;48.188;11.566;2022-12-07T14:28:38;5.85;66.60
64111;DHT22;50401;48.188;11.566;2022-12-07T14:31:10;5.80;66.64
64111;DHT22;50401;48.188;11.566;2022-12-07T14:33:36;5.78;66.85
64111;DHT22;50401;48.188;11.566;2022-12-07T14:36:02;5.73;66.78
64111;DHT22;50401;48.188;11.566;2022-12-07T14:38:27;5.71;66.49
64111;DHT22;50401;48.188;11.566;2022-12-07T14:40:52;5.68;66.29
64111;DHT22;50401;48.188;11.566;2022-12-07T14:43:18;5.71;66.21
64111;DHT22;50401;48.188;11.566;2022-12-07T14:45:44;5.69;66.43
64111;DHT22;50401;48.188;11.566;2022-12-07T14:48:13;5.69;66.29
64111;DHT22;50401;48.188;11.566;2022-12-07T14:50:44;5.68;66.19
64111;DHT22;50401;48.188;11.566;2022-12-07T14:53:10;5.62;66.19
64111;DHT22;50401;48.188;11.566;2022-12-07T14:55:37;5.63;66.29
64111;DHT22;50401;48.188;11.566;2022-12-07T14:58:02;5.59;65.88
64111;DHT22;50401;48.188;11.566;2022-12-07T15:00:28;5.58;65.92
64111;DHT22;50401;48.188;11.566;2022-12-07T15:02:54;5.58;66.30
64111;DHT22;50401;48.188;11.566;2022-12-07T15:05:19;5.54;67.83
64111;DHT22;50401;48.188;11.566;2022-12-07T15:07:45;5.48;68.76
64111;DHT22;50401;48.188;11.566;2022-12-07T15:10:18;5.44;69.47
64111;DHT22;50401;48.188;11.566;2022-12-07T15:12:44;5.37;70.13
64111;DHT22;50401;48.188;11.566;2022-12-07T15:15:09;5.33;70.53
64111;DHT22;50401;48.188;11.566;2022-12-07T15:17:35;5.24;70.92
64111;DHT22;50401;48.188;11.566;2022-12-07T15:20:00;5.20;71.19
64111;DHT22;50401;48.188;11.566;2022-12-07T15:22:26;5.13;71.28
64111;DHT22;50401;48.188;11.566;2022-12-07T15:24:51;5.05;71.57
64111;DHT22;50401;48.188;11.566;2022-12-07T15:27:16;5.05;71.78
64111;DHT22;50401;48.188;11.566;2022-12-07T15:29:41;5.05;72.01
64111;DHT22;50401;48.188;11.566;2022-12-07T15:32:07;5.05;72.15
64111;DHT22;50401;48.188;11.566;2022-12-07T15:34:32;5.08;72.27
64111;DHT22;50401;48.188;11.566;2022-12-07T15:36:57;5.03;72.26
64111;DHT22;50401;48.188;11.566;2022-12-07T15:39:22;5.08;72.28
64111;DHT22;50401;48.188;11.566;2022-12-07T15:41:48;5.12;72.24
64111;DHT22;50401;48.188;11.566;2022-12-07T15:44:13;5.09;72.33
64111;DHT22;50401;48.188;11.566;2022-12-07T15:46:57;5.12;72.32
64111;DHT22;50401;48.188;11.566;2022-12-07T15:49:22;5.18;72.09
64111;DHT22;50401;48.188;11.566;2022-12-07T15:51:47;5.12;72.13
64111;DHT22;50401;48.188;11.566;2022-12-07T15:54:18;5.08;72.42
64111;DHT22;50401;48.188;11.566;2022-12-07T15:56:44;5.10;72.55
64111;DHT22;50401;48.188;11.566;2022-12-07T15:59:09;5.10;72.48
64111;DHT22;50401;48.188;11.566;2022-12-07T16:01:34;5.09;72.47
64111;DHT22;50401;48.188;11.566;2022-12-07T16:04:00;5.13;72.40
64111;DHT22;50401;48.188;11.566;2022-12-07T16:06:25;5.13;72.36
64111;DHT22;50401;48.188;11.566;2022-12-07T16:08:51;5.16;72.25
64111;DHT22;50401;48.188;11.566;2022-12-07T16:11:17;5.10;72.43
64111;DHT22;50401;48.188;11.566;2022-12-07T16:13:42;5.08;72.49
64111;DHT22;50401;48.188;11.566;2022-12-07T16:16:12;5.08;72.60
64111;DHT22;50401;48.188;11.566;2022-12-07T16:18:38;5.10;72.66
64111;DHT22;50401;48.188;11.566;2022-12-07T16:21:03;5.09;72.60
64111;DHT22;50401;48.188;11.566;2022-12-07T16:23:29;5.05;72.74
64111;DHT22;50401;48.188;11.566;2022-12-07T16:25:54;5.13;72.43
64111;DHT22;50401;48.188;11.566;2022-12-07T16:28:19;5.09;72.38
64111;DHT22;50401;48.188;11.566;2022-12-07T16:30:45;5.06;72.55
64111;DHT22;50401;48.188;11.566;2022-12-07T16:33:10;5.09;72.47
64111;DHT22;50401;48.188;11.566;2022-12-07T16:35:38;5.09;72.57
64111;DHT22;50401;48.188;11.566;2022-12-07T16:38:05;5.09;72.60
64111;DHT22;50401;48.188;11.566;2022-12-07T16:40:31;5.13;72.61
64111;DHT22;50401;48.188;11.566;2022-12-07T16:42:56;5.16;72.43
64111;DHT22;50401;48.188;11.566;2022-12-07T16:45:21;5.13;72.31
64111;DHT22;50401;48.188;11.566;2022-12-07T16:47:46;5.10;72.34
64111;DHT22;50401;48.188;11.566;2022-12-07T16:50:12;5.08;72.59
64111;DHT22;50401;48.188;11.566;2022-12-07T16:52:37;5.10;72.51
64111;DHT22;50401;48.188;11.566;2022-12-07T16:55:02;5.09;72.42
64111;DHT22;50401;48.188;11.566;2022-12-07T16:57:28;5.05;72.61
64111;DHT22;50401;48.188;11.566;2022-12-07T16:59:55;5.03;72.55
64111;DHT22;50401;48.188;11.566;2022-12-07T17:02:20;5.05;72.55
64111;DHT22;50401;48.188;11.566;2022-12-07T17:04:45;5.05;72.51
64111;DHT22;50401;48.188;11.566;2022-12-07T17:07:10;5.09;72.46
64111;DHT22;50401;48.188;11.566;2022-12-07T17:09:36;5.09;72.49
64111;DHT22;50401;48.188;11.566;2022-12-07T17:12:02;5.09;72.59
64111;DHT22;50401;48.188;11.566;2022-12-07T17:14:27;5.08;72.68
64111;DHT22;50401;48.188;11.566;2022-12-07T17:17:11;5.05;72.70
64111;DHT22;50401;48.188;11.566;2022-12-07T17:19:36;5.08;72.58
64111;DHT22;50401;48.188;11.566;2022-12-07T17:22:02;5.05;72.65
64111;DHT22;50401;48.188;11.566;2022-12-07T17:24:27;5.00;72.65
64111;DHT22;50401;48.188;11.566;2022-12-07T17:26:52;5.05;72.54
64111;DHT22;50401;48.188;11.566;2022-12-07T17:29:18;5.00;72.62